createdAt,value
2022-07-25T00:02:02.585Z,5.00
2022-07-25T00:04:29.915Z,5.30
2022-07-25T00:06:57.157Z,4.77
2022-07-25T00:09:24.101Z,5.03
2022-07-25T00:11:50.981Z,5.03
2022-07-25T00:14:18.791Z,4.87
2022-07-25T00:16:45.998Z,5.03
2022-07-25T00:19:12.951Z,5.20
2022-07-25T00:21:40.015Z,4.90
2022-07-25T00:24:08.021Z,4.90
2022-07-25T00:26:39.700Z,4.67
2022-07-25T00:29:07.600Z,4.93
2022-07-25T00:31:35.158Z,5.03
2022-07-25T00:34:02.868Z,5.00
2022-07-25T00:36:35.406Z,5.35
2022-07-25T00:39:02.599Z,5.33
2022-07-25T00:41:29.760Z,4.80
2022-07-25T00:43:56.927Z,5.70
2022-07-25T00:46:24.212Z,5.40
2022-07-25T00:48:51.325Z,5.00
2022-07-25T00:51:18.606Z,5.20
2022-07-25T00:53:45.773Z,5.33
2022-07-25T00:56:12.705Z,5.17
2022-07-25T00:58:39.918Z,5.27
2022-07-25T01:01:07.121Z,5.37
2022-07-25T01:03:34.350Z,5.40
2022-07-25T01:06:01.672Z,5.33
2022-07-25T01:08:29.711Z,5.07
2022-07-25T01:10:56.903Z,5.13
2022-07-25T01:13:24.119Z,5.30
2022-07-25T01:15:51.316Z,5.30
2022-07-25T01:18:18.428Z,4.87
2022-07-25T01:20:45.630Z,4.97
2022-07-25T01:23:12.771Z,4.63
2022-07-25T01:25:42.847Z,5.00
2022-07-25T01:28:10.253Z,5.00
2022-07-25T01:30:37.485Z,4.70
2022-07-25T01:33:06.945Z,5.07
2022-07-25T01:35:34.436Z,5.30
2022-07-25T01:38:01.370Z,5.33
2022-07-25T01:40:28.537Z,5.30
2022-07-25T01:42:55.547Z,5.50
2022-07-25T01:45:22.470Z,4.90
2022-07-25T01:47:49.533Z,5.07
2022-07-25T01:50:16.480Z,5.13
2022-07-25T01:52:44.379Z,5.47
2022-07-25T01:55:11.606Z,5.23
2022-07-25T01:57:40.153Z,5.03
2022-07-25T02:00:10.473Z,5.10
2022-07-25T02:02:37.508Z,5.20
2022-07-25T02:05:04.814Z,4.67
2022-07-25T02:07:34.309Z,5.07
2022-07-25T02:10:01.678Z,5.03
2022-07-25T02:12:29.070Z,5.77
2022-07-25T02:14:56.305Z,4.77
2022-07-25T02:17:23.637Z,5.23
2022-07-25T02:19:50.821Z,4.90
2022-07-25T02:22:18.006Z,5.13
2022-07-25T02:24:47.350Z,5.67
2022-07-25T02:27:14.854Z,5.47
2022-07-25T02:29:41.850Z,4.93
2022-07-25T02:32:09.252Z,5.57
2022-07-25T02:34:39.692Z,4.97
2022-07-25T02:37:09.234Z,5.47
2022-07-25T02:39:36.307Z,5.47
2022-07-25T02:42:03.418Z,5.13
2022-07-25T02:44:30.473Z,5.63
2022-07-25T02:47:00.339Z,5.47
2022-07-25T02:49:27.147Z,5.47
2022-07-25T02:51:54.010Z,5.60
2022-07-25T02:54:21.301Z,5.73
2022-07-25T02:56:48.195Z,6.03
2022-07-25T02:59:15.254Z,5.30
2022-07-25T03:01:42.601Z,5.60
2022-07-25T03:04:10.406Z,6.30
2022-07-25T03:06:37.715Z,6.00
2022-07-25T03:09:04.842Z,6.33
2022-07-25T03:11:35.295Z,6.27
2022-07-25T03:14:02.203Z,6.60
2022-07-25T03:16:29.593Z,5.70
2022-07-25T03:18:58.849Z,5.90
2022-07-25T03:21:25.947Z,6.10
2022-07-25T03:23:53.041Z,5.93
2022-07-25T03:26:20.571Z,6.20
2022-07-25T03:28:47.689Z,6.17
2022-07-25T03:31:14.696Z,5.77
2022-07-25T03:33:41.881Z,6.10
2022-07-25T03:36:10.454Z,6.47
2022-07-25T03:38:38.032Z,6.00
2022-07-25T03:41:05.074Z,6.13
2022-07-25T03:43:31.960Z,5.80
2022-07-25T03:45:58.972Z,5.93
2022-07-25T03:48:26.434Z,6.10
2022-07-25T03:50:53.279Z,6.83
2022-07-25T03:53:20.130Z,6.43
2022-07-25T03:55:46.949Z,6.07
2022-07-25T03:58:16.664Z,6.10
2022-07-25T04:00:43.533Z,6.63
2022-07-25T04:03:10.728Z,6.33
2022-07-25T04:05:37.479Z,5.93
2022-07-25T04:08:04.723Z,5.97
2022-07-25T04:10:31.724Z,6.17
2022-07-25T04:12:58.630Z,5.70
2022-07-25T04:15:25.574Z,5.90
2022-07-25T04:17:52.330Z,5.83
2022-07-25T04:20:20.324Z,6.93
2022-07-25T04:22:47.288Z,6.17
2022-07-25T04:25:14.730Z,6.27
2022-07-25T04:27:41.502Z,6.40
2022-07-25T04:30:09.130Z,6.13
2022-07-25T04:32:36.107Z,5.90
2022-07-25T04:35:03.216Z,6.17
2022-07-25T04:37:30.113Z,6.70
2022-07-25T04:39:56.889Z,6.53
2022-07-25T04:42:23.923Z,6.33
2022-07-25T04:44:50.809Z,7.27
2022-07-25T04:47:17.927Z,6.80
2022-07-25T04:49:44.870Z,7.50
2022-07-25T04:52:11.685Z,6.97
2022-07-25T04:54:38.785Z,7.33
2022-07-25T04:57:05.803Z,7.20
2022-07-25T04:59:32.751Z,6.80
2022-07-25T05:01:59.818Z,7.43
2022-07-25T05:04:27.100Z,6.57
2022-07-25T05:06:53.845Z,7.03
2022-07-25T05:09:20.969Z,7.10
2022-07-25T05:11:51.630Z,6.30
2022-07-25T05:14:22.850Z,7.20
2022-07-25T05:16:49.796Z,6.97
2022-07-25T05:19:17.639Z,7.40
2022-07-25T05:21:44.391Z,7.20
2022-07-25T05:24:12.144Z,6.77
2022-07-25T05:26:39.139Z,8.60
2022-07-25T05:29:09.234Z,6.80
2022-07-25T05:31:36.588Z,6.63
2022-07-25T05:34:06.220Z,6.80
2022-07-25T05:36:33.543Z,7.97
2022-07-25T05:39:00.591Z,6.77
2022-07-25T05:41:27.496Z,6.97
2022-07-25T05:43:54.654Z,6.77
2022-07-25T05:46:22.129Z,6.90
2022-07-25T05:48:52.893Z,6.07
2022-07-25T05:51:20.104Z,7.20
2022-07-25T05:53:47.126Z,6.10
2022-07-25T05:56:13.873Z,6.70
2022-07-25T05:58:41.057Z,5.87
2022-07-25T06:01:11.504Z,7.07
2022-07-25T06:03:38.356Z,6.53
2022-07-25T06:06:05.582Z,6.20
2022-07-25T06:08:34.011Z,6.30
2022-07-25T06:11:01.165Z,6.63
2022-07-25T06:13:28.984Z,6.43
2022-07-25T06:15:56.008Z,7.17
2022-07-25T06:18:24.222Z,6.63
2022-07-25T06:20:51.311Z,6.37
2022-07-25T06:23:18.457Z,5.57
2022-07-25T06:25:50.243Z,5.90
2022-07-25T06:28:18.131Z,5.23
2022-07-25T06:30:45.843Z,5.00
2022-07-25T06:33:13.590Z,4.80
2022-07-25T06:35:40.411Z,5.63
2022-07-25T06:38:07.358Z,5.13
2022-07-25T06:40:34.504Z,5.57
2022-07-25T06:45:28.603Z,4.53
2022-07-25T06:47:55.497Z,3.87
2022-07-25T06:50:22.401Z,3.77
2022-07-25T06:52:52.355Z,3.37
2022-07-25T06:55:19.260Z,3.80
2022-07-25T06:57:46.140Z,3.40
2022-07-25T07:00:13.931Z,2.87
2022-07-25T07:02:56.859Z,2.77
2022-07-25T07:05:26.414Z,2.67
2022-07-25T07:07:53.997Z,2.80
2022-07-25T07:10:22.100Z,2.57
2022-07-25T07:12:49.448Z,2.23
2022-07-25T07:15:17.638Z,2.23
2022-07-25T07:17:44.638Z,2.07
2022-07-25T07:20:11.970Z,1.80
2022-07-25T07:22:49.991Z,2.10
2022-07-25T07:25:21.502Z,1.70
2022-07-25T07:27:48.922Z,1.70
2022-07-25T07:30:18.559Z,2.57
2022-07-25T07:32:49.065Z,1.63
2022-07-25T07:35:16.674Z,2.23
2022-07-25T07:37:44.565Z,1.60
2022-07-25T07:40:17.776Z,2.07
2022-07-25T07:42:48.185Z,1.50
2022-07-25T07:45:21.052Z,1.30
2022-07-25T07:47:53.333Z,1.50
2022-07-25T07:50:23.768Z,1.50
2022-07-25T07:52:51.699Z,1.60
2022-07-25T07:55:37.611Z,1.20
2022-07-25T07:58:05.725Z,1.70
2022-07-25T08:00:36.753Z,1.50
2022-07-25T08:03:07.620Z,2.17
2022-07-25T08:05:40.695Z,1.10
2022-07-25T08:08:09.565Z,1.40
2022-07-25T08:10:43.226Z,1.17
2022-07-25T08:13:18.099Z,1.13
2022-07-25T08:15:47.866Z,1.27
2022-07-25T08:18:17.839Z,1.30
2022-07-25T08:20:46.161Z,1.13
2022-07-25T08:23:13.033Z,1.53
2022-07-25T08:25:40.660Z,1.30
2022-07-25T08:28:08.035Z,1.60
2022-07-25T08:30:39.387Z,1.20
2022-07-25T08:33:10.756Z,1.43
2022-07-25T08:35:37.951Z,1.10
2022-07-25T08:38:05.325Z,1.40
2022-07-25T08:40:34.329Z,1.10
2022-07-25T08:43:04.324Z,1.70
2022-07-25T08:45:32.923Z,1.10
2022-07-25T08:47:59.879Z,1.20
2022-07-25T08:50:29.187Z,1.60
2022-07-25T08:53:16.723Z,1.13
2022-07-25T08:55:47.036Z,1.60
2022-07-25T08:58:18.196Z,1.10
2022-07-25T09:00:53.244Z,0.90
2022-07-25T09:03:20.308Z,1.20
2022-07-25T09:05:47.253Z,1.10
2022-07-25T09:08:17.564Z,1.13
2022-07-25T09:10:52.513Z,1.40
2022-07-25T09:13:22.386Z,1.27
2022-07-25T09:15:51.828Z,1.20
2022-07-25T09:18:23.903Z,1.30
2022-07-25T09:20:58.727Z,1.40
2022-07-25T09:23:39.209Z,1.40
2022-07-25T09:26:11.708Z,1.50
2022-07-25T09:28:46.328Z,1.50
2022-07-25T09:31:14.100Z,1.57
2022-07-25T09:33:51.760Z,1.30
2022-07-25T09:36:21.268Z,1.40
2022-07-25T09:39:03.470Z,1.70
2022-07-25T09:41:40.996Z,1.60
2022-07-25T09:44:18.130Z,2.13
2022-07-25T09:46:45.317Z,1.50
2022-07-25T09:49:14.721Z,1.33
2022-07-25T09:51:45.511Z,1.80
2022-07-25T09:54:12.376Z,1.13
2022-07-25T09:56:39.444Z,0.90
2022-07-25T09:59:06.907Z,1.00
2022-07-25T10:01:50.917Z,0.77
2022-07-25T10:04:41.943Z,0.97
2022-07-25T10:07:10.456Z,0.80
2022-07-25T10:09:44.811Z,1.20
2022-07-25T10:12:14.111Z,0.93
2022-07-25T10:14:41.637Z,1.33
2022-07-25T10:17:08.745Z,0.88
2022-07-25T10:19:49.953Z,0.90
2022-07-25T10:22:34.406Z,1.15
2022-07-25T10:25:17.154Z,1.15
2022-07-25T10:27:48.586Z,1.20
2022-07-25T10:30:27.523Z,2.15
2022-07-25T10:32:59.930Z,1.27
2022-07-25T10:35:28.203Z,1.30
2022-07-25T10:37:58.299Z,1.30
2022-07-25T10:40:38.549Z,1.65
2022-07-25T10:43:17.988Z,1.77
2022-07-25T10:45:49.957Z,1.33
2022-07-25T10:48:28.856Z,1.40
2022-07-25T10:50:58.910Z,1.63
2022-07-25T10:53:32.750Z,1.70
2022-07-25T10:56:15.255Z,1.70
2022-07-25T10:58:56.977Z,1.60
2022-07-25T11:01:29.266Z,2.40
2022-07-25T11:04:05.751Z,2.00
2022-07-25T11:06:40.488Z,2.10
2022-07-25T11:09:27.294Z,1.93
2022-07-25T11:11:59.332Z,2.30
2022-07-25T11:14:41.403Z,2.23
2022-07-25T11:17:33.003Z,1.93
2022-07-25T11:20:04.546Z,1.97
2022-07-25T11:22:32.931Z,2.10
2022-07-25T11:25:00.220Z,2.00
2022-07-25T11:27:28.268Z,1.93
2022-07-25T11:30:06.532Z,2.50
2022-07-25T11:32:46.055Z,2.40
2022-07-25T11:35:14.821Z,1.90
2022-07-25T11:37:48.702Z,1.60
2022-07-25T11:40:17.103Z,2.60
2022-07-25T11:42:49.670Z,1.93
2022-07-25T11:45:20.391Z,1.83
2022-07-25T11:47:49.741Z,2.10
2022-07-25T11:50:17.342Z,1.90
2022-07-25T11:52:45.828Z,1.93
2022-07-25T11:55:17.509Z,2.20
2022-07-25T11:57:47.122Z,2.00
2022-07-25T12:00:22.187Z,2.10
2022-07-25T12:02:50.071Z,2.53
2022-07-25T12:05:33.844Z,2.47
2022-07-25T12:08:10.029Z,3.10
2022-07-25T12:10:40.393Z,2.40
2022-07-25T12:13:10.543Z,2.40
2022-07-25T12:15:39.733Z,2.40
2022-07-25T12:18:09.715Z,2.73
2022-07-25T12:20:40.089Z,2.93
2022-07-25T12:23:11.490Z,2.23
2022-07-25T12:25:44.674Z,2.20
2022-07-25T12:28:12.778Z,3.07
2022-07-25T12:30:44.059Z,2.83
2022-07-25T12:33:11.960Z,2.30
2022-07-25T12:35:41.435Z,2.60
2022-07-25T12:38:09.193Z,2.43
2022-07-25T12:40:36.013Z,1.97
2022-07-25T12:43:05.176Z,1.70
2022-07-25T12:45:32.550Z,2.17
2022-07-25T12:47:59.575Z,2.00
2022-07-25T12:50:26.453Z,2.43
2022-07-25T12:52:54.051Z,1.93
2022-07-25T12:55:21.312Z,2.00
2022-07-25T12:57:50.334Z,2.17
2022-07-25T13:00:19.871Z,1.90
2022-07-25T13:02:52.079Z,2.27
2022-07-25T13:05:19.966Z,2.03
2022-07-25T13:07:49.029Z,2.20
2022-07-25T13:10:17.060Z,2.20
2022-07-25T13:12:44.354Z,1.80
2022-07-25T13:15:11.679Z,2.00
2022-07-25T13:17:40.535Z,1.87
2022-07-25T13:20:08.537Z,1.93
2022-07-25T13:22:35.555Z,1.83
2022-07-25T13:25:02.557Z,2.00
2022-07-25T13:27:29.694Z,2.20
2022-07-25T13:29:58.175Z,2.00
2022-07-25T13:32:26.760Z,1.80
2022-07-25T13:34:53.831Z,2.20
2022-07-25T13:37:20.742Z,1.80
2022-07-25T13:39:48.766Z,1.50
2022-07-25T13:42:15.741Z,2.07
2022-07-25T13:44:43.266Z,1.90
2022-07-25T13:47:10.135Z,1.60
2022-07-25T13:49:37.164Z,1.80
2022-07-25T13:52:04.381Z,2.00
2022-07-25T13:54:31.510Z,1.80
2022-07-25T13:56:58.789Z,1.60
2022-07-25T13:59:25.608Z,1.80
2022-07-25T14:01:52.604Z,2.07
2022-07-25T14:04:19.745Z,2.27
2022-07-25T14:06:51.706Z,1.80
2022-07-25T14:09:22.294Z,1.90
2022-07-25T14:11:49.330Z,2.00
2022-07-25T14:14:16.565Z,1.67
2022-07-25T14:16:43.631Z,1.97
2022-07-25T14:19:10.860Z,2.13
2022-07-25T14:21:38.016Z,2.60
2022-07-25T14:24:05.433Z,1.83
2022-07-25T14:26:34.543Z,1.87
2022-07-25T14:29:01.931Z,2.20
2022-07-25T14:31:28.946Z,1.97
2022-07-25T14:33:58.327Z,1.60
2022-07-25T14:36:25.411Z,1.47
2022-07-25T14:38:52.572Z,2.00
2022-07-25T14:41:19.897Z,1.80
2022-07-25T14:43:46.916Z,1.60
2022-07-25T14:46:14.065Z,1.17
2022-07-25T14:48:41.584Z,1.10
2022-07-25T14:51:08.826Z,1.20
2022-07-25T14:53:36.231Z,0.93
2022-07-25T14:56:05.517Z,1.27
2022-07-25T14:58:33.609Z,1.30
2022-07-25T15:01:00.729Z,2.03
2022-07-25T15:03:28.057Z,1.50
2022-07-25T15:05:55.089Z,1.30
2022-07-25T15:08:22.321Z,1.10
2022-07-25T15:10:49.560Z,1.10
2022-07-25T15:13:32.433Z,1.00
2022-07-25T15:16:00.717Z,1.83
2022-07-25T15:18:28.041Z,1.10
2022-07-25T15:20:55.492Z,1.43
2022-07-25T15:23:25.023Z,1.10
2022-07-25T15:26:01.914Z,1.13
2022-07-25T15:28:30.264Z,1.10
2022-07-25T15:30:57.212Z,0.90
2022-07-25T15:33:24.206Z,1.03
2022-07-25T15:35:51.139Z,1.37
2022-07-25T15:38:18.748Z,0.90
2022-07-25T15:40:46.176Z,1.10
2022-07-25T15:43:13.232Z,1.00
2022-07-25T15:45:42.003Z,0.57
2022-07-25T15:48:10.499Z,1.00
2022-07-25T15:50:51.775Z,0.77
2022-07-25T15:53:18.893Z,0.90
2022-07-25T15:55:45.864Z,0.80
2022-07-25T15:58:12.934Z,0.70
2022-07-25T16:00:40.569Z,0.87
2022-07-25T16:03:08.617Z,0.70
2022-07-25T16:05:37.040Z,0.80
2022-07-25T16:08:04.699Z,1.00
2022-07-25T16:10:33.054Z,0.90
2022-07-25T16:13:01.124Z,0.60
2022-07-25T16:15:28.309Z,0.83
2022-07-25T16:18:01.794Z,1.10
2022-07-25T16:20:31.277Z,0.70
2022-07-25T16:22:59.474Z,0.80
2022-07-25T16:25:28.171Z,0.87
2022-07-25T16:27:55.861Z,0.60
2022-07-25T16:30:25.772Z,0.60
2022-07-25T16:32:52.778Z,0.63
2022-07-25T16:35:20.087Z,1.60
2022-07-25T16:37:46.882Z,0.70
2022-07-25T16:40:14.591Z,0.70
2022-07-25T16:42:42.034Z,1.03
2022-07-25T16:45:09.646Z,0.60
2022-07-25T16:47:36.977Z,0.73
2022-07-25T16:50:04.200Z,0.87
2022-07-25T16:52:31.138Z,0.60
2022-07-25T16:54:59.599Z,0.77
2022-07-25T16:57:26.500Z,0.53
2022-07-25T16:59:53.807Z,0.80
2022-07-25T17:02:26.172Z,1.00
2022-07-25T17:04:56.025Z,0.87
2022-07-25T17:07:22.852Z,0.67
2022-07-25T17:09:50.044Z,0.70
2022-07-25T17:12:17.648Z,0.47
2022-07-25T17:14:45.279Z,0.57
2022-07-25T17:17:12.363Z,1.00
2022-07-25T17:19:42.275Z,1.10
2022-07-25T17:22:10.028Z,1.10
2022-07-25T17:24:37.264Z,1.03
2022-07-25T17:27:04.548Z,0.70
2022-07-25T17:29:31.967Z,1.00
2022-07-25T17:31:58.928Z,0.93
2022-07-25T17:34:26.976Z,1.37
2022-07-25T17:36:54.426Z,1.37
2022-07-25T17:39:21.324Z,1.30
2022-07-25T17:41:49.079Z,5.43
2022-07-25T17:44:16.435Z,2.17
2022-07-25T17:46:44.156Z,1.50
2022-07-25T17:49:11.196Z,1.33
2022-07-25T17:51:38.036Z,1.47
2022-07-25T17:54:05.158Z,1.77
2022-07-25T17:56:33.304Z,1.67
2022-07-25T17:59:00.131Z,6.27
2022-07-25T18:01:26.969Z,4.70
2022-07-25T18:03:54.039Z,1.40
2022-07-25T18:06:23.060Z,2.57
2022-07-25T18:08:53.354Z,1.90
2022-07-25T18:11:23.372Z,1.67
2022-07-25T18:13:50.178Z,2.30
2022-07-25T18:16:17.362Z,1.43
2022-07-25T18:18:44.328Z,1.63
2022-07-25T18:21:11.293Z,1.40
2022-07-25T18:23:38.112Z,3.27
2022-07-25T18:26:05.059Z,1.47
2022-07-25T18:28:32.344Z,1.57
2022-07-25T18:30:59.302Z,1.20
2022-07-25T18:33:26.445Z,1.10
2022-07-25T18:35:53.500Z,1.23
2022-07-25T18:38:20.595Z,1.40
2022-07-25T18:40:47.485Z,1.50
2022-07-25T18:43:14.621Z,1.40
2022-07-25T18:45:42.309Z,2.77
2022-07-25T18:48:09.667Z,1.70
2022-07-25T18:50:36.760Z,2.23
2022-07-25T18:53:03.910Z,2.83
2022-07-25T18:55:30.999Z,1.57
2022-07-25T18:57:58.705Z,2.00
2022-07-25T19:00:25.838Z,1.73
2022-07-25T19:02:52.897Z,1.30
2022-07-25T19:05:20.011Z,1.43
2022-07-25T19:07:47.136Z,1.17
2022-07-25T19:10:14.721Z,1.33
2022-07-25T19:12:41.819Z,1.50
2022-07-25T19:15:11.940Z,1.10
2022-07-25T19:17:38.855Z,1.20
2022-07-25T19:20:06.511Z,1.93
2022-07-25T19:22:33.746Z,1.00
2022-07-25T19:25:05.541Z,1.17
2022-07-25T19:27:32.709Z,1.20
2022-07-25T19:29:59.895Z,0.87
2022-07-25T19:32:27.177Z,0.90
2022-07-25T19:34:54.056Z,0.83
2022-07-25T19:37:21.498Z,1.17
2022-07-25T19:39:49.093Z,1.00
2022-07-25T19:42:16.025Z,0.90
2022-07-25T19:44:43.061Z,0.90
2022-07-25T19:47:12.026Z,0.80
2022-07-25T19:49:40.540Z,0.90
2022-07-25T19:52:08.786Z,0.87
2022-07-25T19:54:39.180Z,0.80
2022-07-25T19:57:06.425Z,0.63
2022-07-25T19:59:33.749Z,0.93
2022-07-25T20:02:01.206Z,0.70
2022-07-25T20:04:28.646Z,0.73
2022-07-25T20:06:55.905Z,0.60
2022-07-25T20:09:22.933Z,1.07
2022-07-25T20:11:49.837Z,0.73
2022-07-25T20:14:16.986Z,0.90
2022-07-25T20:16:44.293Z,0.90
2022-07-25T20:19:12.524Z,1.10
2022-07-25T20:21:40.702Z,1.00
2022-07-25T20:24:07.895Z,0.90
2022-07-25T20:26:35.246Z,0.67
2022-07-25T20:29:02.689Z,0.70
2022-07-25T20:31:29.769Z,0.90
2022-07-25T20:33:56.914Z,0.80
2022-07-25T20:36:23.773Z,0.57
2022-07-25T20:38:51.071Z,0.73
2022-07-25T20:41:18.077Z,0.97
2022-07-25T20:43:45.557Z,0.80
2022-07-25T20:46:12.664Z,0.67
2022-07-25T20:48:39.701Z,1.00
2022-07-25T20:51:06.888Z,0.67
2022-07-25T20:53:34.880Z,0.70
2022-07-25T20:56:02.939Z,1.13
2022-07-25T20:58:29.824Z,0.70
2022-07-25T21:01:00.068Z,0.70
2022-07-25T21:03:27.305Z,1.20
2022-07-25T21:05:54.505Z,0.80
2022-07-25T21:08:21.380Z,0.90
2022-07-25T21:10:51.318Z,0.70
2022-07-25T21:13:21.447Z,1.30
2022-07-25T21:15:48.555Z,1.00
2022-07-25T21:18:15.529Z,1.03
2022-07-25T21:20:47.729Z,1.17
2022-07-25T21:23:15.693Z,0.90
2022-07-25T21:25:43.167Z,1.10
2022-07-25T21:28:11.321Z,0.80
2022-07-25T21:30:41.109Z,0.90
2022-07-25T21:33:14.381Z,0.77
2022-07-25T21:35:49.122Z,0.93
2022-07-25T21:38:26.408Z,1.00
2022-07-25T21:40:58.422Z,1.13
2022-07-25T21:43:25.545Z,1.27
2022-07-25T21:45:52.499Z,1.10
2022-07-25T21:48:39.846Z,0.93
2022-07-25T21:51:10.177Z,2.03
2022-07-25T21:53:47.915Z,1.17
2022-07-25T21:56:16.030Z,0.93
2022-07-25T21:58:42.923Z,0.90
2022-07-25T22:01:10.003Z,0.83
2022-07-25T22:03:37.075Z,1.10
2022-07-25T22:06:04.294Z,0.97
2022-07-25T22:08:31.359Z,1.20
2022-07-25T22:11:15.843Z,0.90
2022-07-25T22:13:48.491Z,1.23
2022-07-25T22:16:16.638Z,1.23
2022-07-25T22:18:43.531Z,1.57
2022-07-25T22:21:11.450Z,1.20
2022-07-25T22:23:45.954Z,1.07
2022-07-25T22:26:13.162Z,1.10
2022-07-25T22:28:40.365Z,1.10
2022-07-25T22:31:08.624Z,1.40
2022-07-25T22:33:40.669Z,1.40
2022-07-25T22:36:08.010Z,1.00
2022-07-25T22:38:35.019Z,1.27
2022-07-25T22:41:02.037Z,1.10
2022-07-25T22:43:58.419Z,2.33
2022-07-25T22:46:16.102Z,2.23
2022-07-25T22:48:43.327Z,1.47
2022-07-25T22:51:10.835Z,1.37
2022-07-25T22:53:41.780Z,1.30
2022-07-25T22:56:09.015Z,1.20
2022-07-25T22:58:36.061Z,1.23
2022-07-25T23:01:05.995Z,1.10
2022-07-25T23:03:33.740Z,1.10
2022-07-25T23:06:00.837Z,0.90
2022-07-25T23:08:28.186Z,1.07
2022-07-25T23:10:55.377Z,1.50
2022-07-25T23:13:22.574Z,1.10
2022-07-25T23:15:51.401Z,1.73
2022-07-25T23:18:19.828Z,1.17
2022-07-25T23:20:46.794Z,1.10
2022-07-25T23:23:14.211Z,1.27
2022-07-25T23:25:41.565Z,1.60
2022-07-25T23:28:08.934Z,1.83
2022-07-25T23:30:40.664Z,1.40
2022-07-25T23:33:08.675Z,2.10
2022-07-25T23:35:36.034Z,1.30
2022-07-25T23:38:06.640Z,1.97
2022-07-25T23:40:33.644Z,1.03
2022-07-25T23:43:04.209Z,1.20
2022-07-25T23:45:31.738Z,1.73
2022-07-25T23:47:58.696Z,1.30
2022-07-25T23:50:25.486Z,1.17
2022-07-25T23:52:52.594Z,1.63
2022-07-25T23:55:22.283Z,1.57
2022-07-25T23:57:49.690Z,1.30
